Time;durP1;ratioP1;P1;durP2;ratioP2;P2;SDS_P1;SDS_P2;PMS_P1;PMS_P2;Temp;Humidity;BMP_temperature;BMP_pressure;BME280_temperature;BME280_humidity;BME280_pressure;Samples;Min_cycle;Max_cycle;Signal;HPM_P1;HPM_P2
2023/06/21 00:00:39;;;;;;;9.63;8.63;;;21.90;90.60;;;;;;5089286;28;20046;-67
2023/06/21 00:03:04;;;;;;;15.55;14.05;;;21.90;90.50;;;;;;5083963;28;20024;-68
2023/06/21 00:05:31;;;;;;;13.15;11.20;;;21.80;90.60;;;;;;5087960;28;20027;-68
2023/06/21 00:07:57;;;;;;;13.43;10.95;;;21.60;90.80;;;;;;5086407;28;20024;-68
2023/06/21 00:10:23;;;;;;;10.15;9.02;;;21.60;90.90;;;;;;5084132;28;20094;-68
2023/06/21 00:12:52;;;;;;;9.98;8.80;;;21.60;90.80;;;;;;5080966;28;20024;-68
2023/06/21 00:15:18;;;;;;;12.73;11.52;;;21.70;90.80;;;;;;5081692;28;20046;-68
2023/06/21 00:17:43;;;;;;;11.07;9.98;;;21.70;90.70;;;;;;5095387;28;20020;-68
2023/06/21 00:20:10;;;;;;;13.05;11.50;;;21.60;90.70;;;;;;5089271;28;20103;-68
2023/06/21 00:22:37;;;;;;;8.50;7.63;;;21.50;90.80;;;;;;5096679;27;20436;-68
2023/06/21 00:25:03;;;;;;;7.57;6.88;;;21.40;90.90;;;;;;5091353;28;20109;-68
2023/06/21 00:27:28;;;;;;;9.35;8.43;;;21.40;90.80;;;;;;5089451;28;20102;-68
2023/06/21 00:29:54;;;;;;;7.53;6.70;;;21.40;90.80;;;;;;5090763;28;20095;-68
2023/06/21 00:32:20;;;;;;;8.95;7.85;;;21.20;90.80;;;;;;5086246;28;20169;-68
2023/06/21 00:34:47;;;;;;;7.72;6.90;;;21.20;90.80;;;;;;5081672;28;20099;-67
2023/06/21 00:37:13;;;;;;;7.28;6.28;;;21.20;90.80;;;;;;5085080;28;20032;-67
2023/06/21 00:39:38;;;;;;;6.97;6.28;;;21.20;90.80;;;;;;5092791;28;20020;-68
2023/06/21 00:42:05;;;;;;;6.45;5.60;;;21.10;90.70;;;;;;5090471;28;20491;-68
2023/06/21 00:44:31;;;;;;;6.50;5.78;;;21.10;90.80;;;;;;5099404;28;20028;-67
2023/06/21 00:46:56;;;;;;;7.38;6.15;;;21.00;90.80;;;;;;5081720;28;20497;-67
2023/06/21 00:49:23;;;;;;;6.38;5.57;;;21.00;90.80;;;;;;5082209;28;20516;-67
2023/06/21 00:51:53;;;;;;;9.07;7.10;;;21.00;90.90;;;;;;5081453;28;20115;-67
2023/06/21 00:54:20;;;;;;;6.28;5.55;;;21.00;90.80;;;;;;5100523;28;20086;-67
2023/06/21 00:56:46;;;;;;;7.45;6.13;;;21.00;90.80;;;;;;5083638;28;20024;-68
2023/06/21 00:59:12;;;;;;;5.78;5.18;;;21.00;90.90;;;;;;5086388;28;20086;-67
2023/06/21 01:01:37;;;;;;;6.63;5.88;;;20.90;90.80;;;;;;5090888;28;20024;-67
2023/06/21 01:04:10;;;;;;;5.45;4.82;;;20.90;90.90;;;;;;5086699;28;20021;-67
2023/06/21 01:06:35;;;;;;;7.18;6.28;;;20.90;90.80;;;;;;5082912;28;20036;-67
2023/06/21 01:09:37;;;;;;;6.45;5.85;;;20.90;90.80;;;;;;5085690;28;20070;-67
2023/06/21 01:12:28;;;;;;;7.85;6.47;;;20.80;90.90;;;;;;5089973;28;20463;-67
2023/06/21 01:15:02;;;;;;;6.68;5.43;;;20.80;91.00;;;;;;5094081;28;20032;-67
2023/06/21 01:17:32;;;;;;;8.35;6.90;;;20.80;91.00;;;;;;5091035;28;20382;-68
2023/06/21 01:19:59;;;;;;;7.88;7.13;;;20.70;91.10;;;;;;5093188;28;20450;-67
2023/06/21 01:22:51;;;;;;;7.28;6.57;;;20.70;91.20;;;;;;5091165;28;20467;-67
2023/06/21 01:25:22;;;;;;;6.97;6.28;;;20.70;91.30;;;;;;5083256;28;20020;-67
2023/06/21 01:28:07;;;;;;;10.48;9.20;;;20.70;91.40;;;;;;5086385;28;20020;-67
2023/06/21 01:30:34;;;;;;;8.35;6.50;;;20.70;91.50;;;;;;5088676;28;20051;-68
2023/06/21 01:33:00;;;;;;;7.72;6.82;;;20.60;91.50;;;;;;5093512;28;20653;-68
2023/06/21 01:35:26;;;;;;;10.60;9.32;;;20.70;91.50;;;;;;5090217;28;20075;-67
2023/06/21 01:37:52;;;;;;;7.78;6.97;;;20.70;91.70;;;;;;5096385;28;20024;-67
2023/06/21 01:40:19;;;;;;;8.60;7.70;;;20.70;91.70;;;;;;5092322;28;20417;-67
2023/06/21 01:42:45;;;;;;;8.68;7.78;;;20.70;91.70;;;;;;5097272;28;20055;-67
2023/06/21 01:45:11;;;;;;;8.23;7.43;;;20.70;91.70;;;;;;5090886;28;20483;-68
2023/06/21 01:47:38;;;;;;;9.13;8.15;;;20.70;91.70;;;;;;5088121;28;20426;-68
2023/06/21 01:50:08;;;;;;;8.93;8.02;;;20.70;91.70;;;;;;5081881;28;20024;-67
2023/06/21 01:52:35;;;;;;;9.63;8.63;;;20.70;91.70;;;;;;5091632;28;20049;-68
2023/06/21 01:55:02;;;;;;;9.75;8.80;;;20.70;91.70;;;;;;5089775;28;20107;-67
2023/06/21 01:57:30;;;;;;;10.75;9.55;;;20.70;91.80;;;;;;5082522;28;20032;-67
2023/06/21 01:59:56;;;;;;;10.13;8.60;;;20.70;91.80;;;;;;5085594;28;20031;-67
2023/06/21 02:02:23;;;;;;;9.10;8.20;;;20.70;91.80;;;;;;5089805;28;20115;-67
2023/06/21 02:04:50;;;;;;;10.02;9.02;;;20.70;91.70;;;;;;5087689;28;20020;-68
2023/06/21 02:07:16;;;;;;;10.00;8.38;;;20.70;91.70;;;;;;5081290;28;20017;-68
2023/06/21 02:09:44;;;;;;;8.90;8.00;;;20.80;91.60;;;;;;5093877;28;20057;-68
2023/06/21 02:12:10;;;;;;;10.57;8.50;;;20.80;91.50;;;;;;5091241;28;20024;-67
2023/06/21 02:14:37;;;;;;;11.27;9.45;;;20.90;91.40;;;;;;5096760;28;20079;-67
2023/06/21 02:17:04;;;;;;;9.85;8.85;;;20.90;91.40;;;;;;5089507;28;20024;-67
2023/06/21 02:19:29;;;;;;;9.90;8.90;;;20.90;91.30;;;;;;5097206;28;20020;-67
2023/06/21 02:21:55;;;;;;;12.50;10.23;;;20.90;91.30;;;;;;5094150;28;20024;-67
2023/06/21 02:24:20;;;;;;;11.55;10.35;;;21.00;91.20;;;;;;5093763;28;20500;-67
2023/06/21 02:26:46;;;;;;;12.18;10.90;;;20.90;91.30;;;;;;5089149;28;20070;-66
2023/06/21 02:29:11;;;;;;;11.15;10.00;;;21.00;91.20;;;;;;5097947;28;20038;-68
2023/06/21 02:31:37;;;;;;;11.13;10.02;;;21.00;91.10;;;;;;5099216;28;20032;-67
2023/06/21 02:34:02;;;;;;;11.35;10.25;;;21.00;91.10;;;;;;5085114;28;20040;-67
2023/06/21 02:36:29;;;;;;;11.52;10.32;;;21.00;91.10;;;;;;5091661;28;20106;-67
2023/06/21 02:38:55;;;;;;;15.05;12.13;;;21.00;91.10;;;;;;5093215;28;20498;-67
2023/06/21 02:41:21;;;;;;;11.75;10.55;;;21.00;91.10;;;;;;5094270;28;20614;-68
2023/06/21 02:43:46;;;;;;;13.38;11.82;;;20.90;91.10;;;;;;5085832;28;20016;-67
2023/06/21 02:46:12;;;;;;;14.40;12.48;;;20.90;91.10;;;;;;5084804;28;20025;-67
2023/06/21 02:48:37;;;;;;;12.70;11.40;;;20.90;91.10;;;;;;5092872;28;20021;-66
2023/06/21 02:51:03;;;;;;;14.43;11.77;;;20.90;91.20;;;;;;5085410;28;20081;-67
2023/06/21 02:53:29;;;;;;;16.27;14.52;;;20.80;91.20;;;;;;5085622;28;20517;-67
2023/06/21 02:55:54;;;;;;;15.82;14.23;;;20.80;91.30;;;;;;5096046;28;20020;-67
2023/06/21 02:58:20;;;;;;;18.50;15.13;;;20.80;91.40;;;;;;5088788;28;20028;-67
2023/06/21 03:00:45;;;;;;;18.40;15.80;;;20.70;91.60;;;;;;5087710;28;20467;-67
2023/06/21 03:03:11;;;;;;;17.25;14.57;;;20.70;91.70;;;;;;5081731;28;20025;-67
2023/06/21 03:05:37;;;;;;;17.23;15.15;;;20.80;91.70;;;;;;5091220;28;20020;-67
2023/06/21 03:08:09;;;;;;;16.20;14.48;;;20.70;91.60;;;;;;5089617;28;20082;-68
2023/06/21 03:10:36;;;;;;;20.85;17.10;;;20.80;91.60;;;;;;5099297;28;20020;-68
2023/06/21 03:13:02;;;;;;;16.90;14.57;;;20.70;91.60;;;;;;5095608;28;20039;-69
2023/06/21 03:15:28;;;;;;;15.98;13.98;;;20.70;91.60;;;;;;5094382;28;20579;-67
2023/06/21 03:17:54;;;;;;;18.65;15.55;;;20.80;91.50;;;;;;5090880;28;20027;-68
2023/06/21 03:20:19;;;;;;;19.85;16.80;;;20.80;91.50;;;;;;5089644;28;20021;-67
2023/06/21 03:22:46;;;;;;;20.30;17.23;;;20.80;91.50;;;;;;5092406;28;20036;-68
2023/06/21 03:25:13;;;;;;;17.45;15.02;;;20.80;91.50;;;;;;5096693;28;20020;-68
2023/06/21 03:27:39;;;;;;;18.17;13.35;;;20.70;91.50;;;;;;5093137;28;20073;-68
2023/06/21 03:30:07;;;;;;;14.98;13.07;;;20.80;91.50;;;;;;5097389;28;20109;-68
2023/06/21 03:32:33;;;;;;;15.82;13.38;;;20.80;91.40;;;;;;5096878;28;20024;-67
2023/06/21 03:34:59;;;;;;;15.20;12.88;;;20.80;91.40;;;;;;5084206;28;20151;-68
2023/06/21 03:37:27;;;;;;;16.33;14.00;;;20.80;91.30;;;;;;5086895;28;20570;-68
2023/06/21 03:39:53;;;;;;;15.65;13.90;;;20.80;91.30;;;;;;5096750;28;20052;-68
2023/06/21 03:42:19;;;;;;;16.35;14.63;;;20.80;91.30;;;;;;5085389;28;20104;-67
2023/06/21 03:44:45;;;;;;;18.85;15.45;;;20.80;91.30;;;;;;5095425;28;20044;-68
2023/06/21 03:47:11;;;;;;;19.65;17.55;;;20.80;91.20;;;;;;5092199;28;20035;-68
2023/06/21 03:49:38;;;;;;;18.58;15.63;;;20.80;91.30;;;;;;5098223;28;20425;-68
2023/06/21 03:52:04;;;;;;;17.20;14.95;;;20.80;91.30;;;;;;5098137;28;20070;-68
2023/06/21 03:54:29;;;;;;;16.80;13.77;;;20.80;91.40;;;;;;5092088;28;20032;-68
2023/06/21 03:56:55;;;;;;;16.45;14.55;;;20.80;91.40;;;;;;5097781;28;20035;-69
2023/06/21 03:59:20;;;;;;;17.02;14.77;;;20.80;91.40;;;;;;5091170;28;20024;-69
2023/06/21 04:01:46;;;;;;;16.83;14.95;;;20.80;91.40;;;;;;5087438;28;20413;-68
2023/06/21 04:04:13;;;;;;;14.98;13.35;;;20.80;91.40;;;;;;5084889;28;20063;-67
2023/06/21 04:06:38;;;;;;;18.30;15.85;;;20.80;91.40;;;;;;5093219;28;20497;-68
2023/06/21 04:09:05;;;;;;;15.18;13.57;;;20.80;91.40;;;;;;5087321;28;20025;-68
2023/06/21 04:11:31;;;;;;;15.73;14.02;;;20.80;91.40;;;;;;5089455;28;20107;-68
2023/06/21 04:13:56;;;;;;;16.42;13.68;;;20.80;91.40;;;;;;5092502;28;20587;-68
2023/06/21 04:16:22;;;;;;;19.85;15.88;;;20.80;91.40;;;;;;5083665;28;20016;-68
2023/06/21 04:18:47;;;;;;;17.15;14.93;;;20.70;91.40;;;;;;5085197;28;20028;-68
2023/06/21 04:21:13;;;;;;;17.80;15.57;;;20.80;91.40;;;;;;5091563;28;20024;-67
2023/06/21 04:23:39;;;;;;;21.15;16.35;;;20.80;91.40;;;;;;5084683;28;20475;-67
2023/06/21 04:26:06;;;;;;;20.65;16.30;;;20.80;91.40;;;;;;5082835;28;20028;-67
2023/06/21 04:28:34;;;;;;;18.08;16.13;;;20.90;91.30;;;;;;5094757;28;20027;-67
2023/06/21 04:31:00;;;;;;;18.23;15.05;;;20.90;91.40;;;;;;5092526;28;20490;-68
2023/06/21 04:33:28;;;;;;;18.02;15.27;;;20.90;91.30;;;;;;5092092;28;20020;-67
2023/06/21 04:35:53;;;;;;;15.52;13.93;;;20.90;91.20;;;;;;5082938;28;20028;-68
2023/06/21 04:38:19;;;;;;;19.25;15.75;;;21.00;91.20;;;;;;5085123;28;20026;-68
2023/06/21 04:40:44;;;;;;;19.60;17.20;;;21.00;91.20;;;;;;5074239;28;20036;-68
2023/06/21 04:43:10;;;;;;;20.83;17.23;;;20.90;91.30;;;;;;5081485;28;20039;-67
2023/06/21 04:45:36;;;;;;;21.10;17.35;;;20.90;91.40;;;;;;5085292;28;20036;-68
2023/06/21 04:48:04;;;;;;;21.08;17.67;;;20.90;91.40;;;;;;5076122;28;21858;-68
2023/06/21 04:50:30;;;;;;;16.85;14.88;;;20.90;91.50;;;;;;5090456;28;20462;-68
2023/06/21 04:52:59;;;;;;;16.90;15.15;;;20.90;91.50;;;;;;5102394;28;20020;-68
2023/06/21 04:55:26;;;;;;;17.80;15.80;;;20.90;91.40;;;;;;5075358;28;20029;-68
2023/06/21 04:57:52;;;;;;;18.13;16.00;;;21.00;91.40;;;;;;5083063;28;20111;-67
2023/06/21 05:00:18;;;;;;;20.02;17.88;;;21.00;91.20;;;;;;5071696;28;20107;-68
2023/06/21 05:02:44;;;;;;;19.30;17.23;;;21.00;91.20;;;;;;5095531;28;20024;-67
2023/06/21 05:05:09;;;;;;;22.92;18.75;;;21.00;91.20;;;;;;5078113;28;20052;-66
2023/06/21 05:07:37;;;;;;;20.20;17.63;;;21.00;91.20;;;;;;5092658;28;20048;-66
2023/06/21 05:10:06;;;;;;;20.60;16.42;;;21.00;91.10;;;;;;5080776;28;20486;-66
2023/06/21 05:12:31;;;;;;;18.83;16.75;;;21.10;91.10;;;;;;5078304;28;20033;-67
2023/06/21 05:14:57;;;;;;;20.45;17.10;;;21.10;91.10;;;;;;5074470;28;20027;-68
2023/06/21 05:17:22;;;;;;;20.88;17.83;;;21.10;91.00;;;;;;5082769;28;21691;-68
2023/06/21 05:19:48;;;;;;;18.33;16.25;;;21.10;90.90;;;;;;5093854;28;20031;-68
2023/06/21 05:22:14;;;;;;;20.50;17.33;;;21.20;90.90;;;;;;5103831;28;20019;-68
2023/06/21 05:24:40;;;;;;;19.33;17.10;;;21.20;90.90;;;;;;5080748;28;20021;-68
2023/06/21 05:27:05;;;;;;;20.73;16.15;;;21.30;90.80;;;;;;5082488;28;20028;-68
2023/06/21 05:29:31;;;;;;;18.42;16.20;;;21.30;90.80;;;;;;5093787;28;20116;-68
2023/06/21 05:31:57;;;;;;;20.80;17.55;;;21.30;90.70;;;;;;5082931;28;20486;-68
2023/06/21 05:34:22;;;;;;;25.38;21.13;;;21.30;90.70;;;;;;5098352;28;20443;-68
2023/06/21 05:36:48;;;;;;;18.80;16.80;;;21.30;90.70;;;;;;5101689;28;20027;-68
2023/06/21 05:39:13;;;;;;;20.65;17.63;;;21.30;90.70;;;;;;5094215;28;20028;-68
2023/06/21 05:41:39;;;;;;;19.60;16.70;;;21.40;90.60;;;;;;5107130;28;20094;-67
2023/06/21 05:44:04;;;;;;;19.80;15.85;;;21.50;90.40;;;;;;5091102;28;20024;-68
2023/06/21 05:46:30;;;;;;;19.58;17.25;;;21.60;90.30;;;;;;5092612;28;20710;-67
2023/06/21 05:48:56;;;;;;;20.75;18.48;;;21.70;90.20;;;;;;5093327;28;20081;-68
2023/06/21 05:51:22;;;;;;;19.40;16.83;;;21.70;90.10;;;;;;5087854;28;20024;-68
2023/06/21 05:53:47;;;;;;;17.92;15.60;;;21.80;90.00;;;;;;5075567;28;20096;-67
2023/06/21 05:56:13;;;;;;;21.65;18.48;;;21.90;89.90;;;;;;5073367;28;20029;-67
2023/06/21 05:58:38;;;;;;;19.27;17.30;;;21.90;89.50;;;;;;5098565;28;20074;-67
2023/06/21 06:01:04;;;;;;;18.15;16.25;;;21.90;89.20;;;;;;5096008;28;20020;-67
2023/06/21 06:03:29;;;;;;;20.30;16.95;;;21.90;89.00;;;;;;5098126;28;20103;-69
2023/06/21 06:05:55;;;;;;;21.48;18.02;;;22.00;88.90;;;;;;5099150;28;20059;-67
2023/06/21 06:08:21;;;;;;;20.17;18.08;;;22.00;88.70;;;;;;5086307;28;20338;-68
2023/06/21 06:10:47;;;;;;;22.55;19.90;;;22.00;88.50;;;;;;5085991;28;20023;-68
2023/06/21 06:13:13;;;;;;;17.02;15.27;;;22.10;88.40;;;;;;5073582;28;20556;-68
2023/06/21 06:15:38;;;;;;;20.65;17.80;;;22.20;88.30;;;;;;5074539;28;20038;-68
2023/06/21 06:18:04;;;;;;;18.75;16.75;;;22.20;88.20;;;;;;5081970;28;20153;-68
2023/06/21 06:20:29;;;;;;;18.33;16.33;;;22.40;87.70;;;;;;5082703;28;20073;-68
2023/06/21 06:22:55;;;;;;;17.00;15.27;;;22.70;87.20;;;;;;5094806;28;20023;-68
2023/06/21 06:25:20;;;;;;;19.38;17.38;;;22.90;86.60;;;;;;5095208;28;20027;-69
2023/06/21 06:27:46;;;;;;;17.52;15.50;;;23.00;86.00;;;;;;5097580;28;20024;-69
2023/06/21 06:30:12;;;;;;;18.02;16.13;;;23.10;85.70;;;;;;5097559;28;20040;-69
2023/06/21 06:32:37;;;;;;;18.80;16.85;;;23.10;85.50;;;;;;5103574;28;20481;-69
2023/06/21 06:35:04;;;;;;;19.92;17.50;;;23.20;85.20;;;;;;5101427;28;20020;-69
2023/06/21 06:37:29;;;;;;;17.33;15.52;;;23.20;84.80;;;;;;5081460;28;20024;-69
2023/06/21 06:39:55;;;;;;;20.02;17.95;;;23.20;84.60;;;;;;5088796;28;20103;-69
2023/06/21 06:42:21;;;;;;;18.75;16.55;;;23.20;84.60;;;;;;5085774;28;20032;-68
2023/06/21 06:44:47;;;;;;;17.73;15.90;;;23.20;84.70;;;;;;5092008;28;20122;-69
2023/06/21 06:47:13;;;;;;;18.08;16.17;;;23.30;84.60;;;;;;5081073;28;20029;-68
2023/06/21 06:49:39;;;;;;;18.27;16.38;;;23.60;84.10;;;;;;5078937;28;20023;-69
2023/06/21 06:52:05;;;;;;;17.17;15.52;;;23.80;83.40;;;;;;5085236;28;20039;-68
2023/06/21 06:54:31;;;;;;;19.33;17.33;;;23.80;82.80;;;;;;5078911;28;20028;-68
2023/06/21 06:56:56;;;;;;;18.98;16.98;;;23.90;82.40;;;;;;5080752;28;20039;-68
2023/06/21 06:59:23;;;;;;;17.30;15.55;;;23.80;82.20;;;;;;5084670;28;20020;-69
2023/06/21 07:01:48;;;;;;;22.17;19.90;;;23.70;82.40;;;;;;5089884;28;20031;-68
2023/06/21 07:04:14;;;;;;;19.25;17.30;;;23.70;82.40;;;;;;5105354;28;20107;-68
2023/06/21 07:06:41;;;;;;;17.85;16.15;;;23.80;82.20;;;;;;5095379;28;20020;-69
2023/06/21 07:09:08;;;;;;;21.55;19.42;;;23.90;81.80;;;;;;5081615;28;20024;-69
2023/06/21 07:11:34;;;;;;;21.83;19.63;;;23.70;81.60;;;;;;5086247;28;20061;-69
2023/06/21 07:13:59;;;;;;;20.02;18.05;;;23.60;81.70;;;;;;5089666;28;20051;-69
2023/06/21 07:16:25;;;;;;;20.13;18.00;;;23.60;81.90;;;;;;5081651;28;20059;-69
2023/06/21 07:18:50;;;;;;;21.42;19.25;;;23.60;82.10;;;;;;5104311;28;20149;-69
2023/06/21 07:21:17;;;;;;;22.35;20.15;;;23.50;82.10;;;;;;5089875;28;20059;-69
2023/06/21 07:23:43;;;;;;;23.88;21.48;;;23.70;81.90;;;;;;5099395;28;20024;-69
2023/06/21 07:26:09;;;;;;;23.17;20.90;;;23.90;81.30;;;;;;5074594;28;20025;-68
2023/06/21 07:28:34;;;;;;;24.17;21.67;;;24.00;80.60;;;;;;5091357;28;20032;-68
2023/06/21 07:31:00;;;;;;;22.13;19.92;;;24.00;80.20;;;;;;5093502;28;20020;-68
2023/06/21 07:33:26;;;;;;;22.23;20.00;;;24.10;80.20;;;;;;5102746;28;20028;-68
2023/06/21 07:35:51;;;;;;;25.10;22.60;;;24.10;80.20;;;;;;5087042;28;20510;-68
2023/06/21 07:38:17;;;;;;;24.45;22.05;;;24.00;80.10;;;;;;5081975;28;20054;-69
2023/06/21 07:40:43;;;;;;;27.02;24.40;;;23.90;80.30;;;;;;5077618;28;20024;-69
2023/06/21 07:43:08;;;;;;;26.65;24.05;;;24.10;80.20;;;;;;5078463;28;20036;-69
2023/06/21 07:45:34;;;;;;;25.85;23.35;;;24.30;79.60;;;;;;5091169;28;20076;-69
2023/06/21 07:47:59;;;;;;;27.45;24.77;;;24.40;78.90;;;;;;5089127;28;20032;-68
2023/06/21 07:50:27;;;;;;;27.70;25.00;;;24.30;78.40;;;;;;5096678;28;20065;-69
2023/06/21 07:52:52;;;;;;;26.30;23.65;;;24.20;78.00;;;;;;5080187;28;20073;-69
2023/06/21 07:55:18;;;;;;;24.48;22.13;;;24.20;77.80;;;;;;5092515;28;20020;-69
2023/06/21 07:57:43;;;;;;;28.83;25.92;;;24.20;77.40;;;;;;5081780;28;20104;-68
2023/06/21 08:00:11;;;;;;;26.35;23.75;;;24.20;76.50;;;;;;5092796;28;20111;-68
2023/06/21 08:02:38;;;;;;;27.35;24.75;;;24.20;76.80;;;;;;5079198;28;20020;-68
2023/06/21 08:05:07;;;;;;;29.42;26.42;;;24.40;76.50;;;;;;5086651;28;20023;-69
2023/06/21 08:07:32;;;;;;;24.98;22.60;;;24.60;76.00;;;;;;5084333;28;20385;-69
2023/06/21 08:09:58;;;;;;;24.27;22.00;;;24.80;76.00;;;;;;5080066;28;20027;-69
2023/06/21 08:12:24;;;;;;;23.60;21.30;;;25.10;75.70;;;;;;5081219;28;21268;-69
2023/06/21 08:14:49;;;;;;;25.77;23.38;;;25.30;75.10;;;;;;5084730;28;20039;-69
2023/06/21 08:17:15;;;;;;;23.30;21.17;;;25.50;74.50;;;;;;5080766;28;20035;-69
2023/06/21 08:19:40;;;;;;;23.23;20.92;;;25.40;73.70;;;;;;5081868;28;20036;-69
2023/06/21 08:22:06;;;;;;;22.48;20.27;;;25.40;74.30;;;;;;5079810;28;20114;-69
2023/06/21 08:24:33;;;;;;;23.20;20.90;;;25.50;73.70;;;;;;5079604;28;20067;-69
2023/06/21 08:26:59;;;;;;;23.77;21.40;;;25.60;73.30;;;;;;5083450;28;20024;-70
2023/06/21 08:29:24;;;;;;;20.02;18.02;;;25.60;73.00;;;;;;5088238;28;20035;-69
2023/06/21 08:31:50;;;;;;;18.50;16.55;;;25.50;72.90;;;;;;5082474;28;20092;-69
2023/06/21 08:34:15;;;;;;;19.98;18.00;;;25.50;72.90;;;;;;5083112;28;20027;-69
2023/06/21 08:36:42;;;;;;;20.85;18.65;;;25.50;72.70;;;;;;5085273;28;20031;-69
2023/06/21 08:39:08;;;;;;;20.08;18.17;;;25.50;72.50;;;;;;5084489;28;20024;-69
2023/06/21 08:41:36;;;;;;;20.25;18.25;;;25.40;72.80;;;;;;5080000;28;20286;-69
2023/06/21 08:44:02;;;;;;;20.15;18.15;;;25.30;73.00;;;;;;5079440;28;20035;-70
2023/06/21 08:46:28;;;;;;;20.42;18.52;;;25.30;73.50;;;;;;5087400;28;20019;-69
2023/06/21 08:49:00;;;;;;;20.35;18.35;;;25.40;73.10;;;;;;5082170;28;20031;-70
2023/06/21 08:51:26;;;;;;;14.00;12.70;;;25.40;72.70;;;;;;5088536;28;20024;-70
2023/06/21 08:54:00;;;;;;;16.48;14.98;;;25.60;72.50;;;;;;5086372;28;20023;-70
2023/06/21 08:56:28;;;;;;;13.15;11.85;;;25.80;71.00;;;;;;5095341;28;20080;-69
2023/06/21 08:59:06;;;;;;;13.27;11.88;;;25.70;70.20;;;;;;5083191;28;20035;-69
2023/06/21 09:01:39;;;;;;;12.35;11.15;;;25.90;70.00;;;;;;5085404;28;20347;-69
2023/06/21 09:04:09;;;;;;;14.20;12.82;;;26.20;69.80;;;;;;5085309;28;20051;-69
2023/06/21 09:06:35;;;;;;;11.88;10.68;;;26.30;69.00;;;;;;5090647;28;20142;-70
2023/06/21 09:09:01;;;;;;;9.77;8.82;;;26.30;67.90;;;;;;5079911;28;20259;-69
2023/06/21 09:11:27;;;;;;;12.70;11.40;;;26.40;67.70;;;;;;5081807;28;20504;-68
2023/06/21 09:13:53;;;;;;;10.73;9.63;;;26.40;66.20;;;;;;5080588;28;20028;-68
2023/06/21 09:16:19;;;;;;;13.88;12.57;;;26.20;65.70;;;;;;5084003;28;20055;-68
2023/06/21 09:18:46;;;;;;;8.85;8.00;;;26.20;65.70;;;;;;5081587;28;20016;-68
2023/06/21 09:21:12;;;;;;;9.30;8.27;;;26.20;66.40;;;;;;5083863;28;20555;-68
2023/06/21 09:23:39;;;;;;;8.88;7.85;;;26.40;66.60;;;;;;5081770;28;20048;-68
2023/06/21 09:26:06;;;;;;;8.25;7.43;;;26.50;65.80;;;;;;5078211;28;20017;-68
2023/06/21 09:28:32;;;;;;;7.72;7.03;;;26.60;66.20;;;;;;5084253;28;20051;-68
2023/06/21 09:30:58;;;;;;;8.00;7.20;;;26.70;66.10;;;;;;5082467;28;20048;-68
2023/06/21 09:33:25;;;;;;;9.60;8.70;;;26.80;66.00;;;;;;5088544;28;20047;-68
2023/06/21 09:35:50;;;;;;;7.82;7.13;;;26.70;65.20;;;;;;5085849;28;20028;-68
2023/06/21 09:38:23;;;;;;;9.15;8.25;;;26.80;65.30;;;;;;5083202;28;20383;-68
2023/06/21 09:40:48;;;;;;;8.07;7.28;;;27.00;64.70;;;;;;5082508;28;20042;-68
2023/06/21 09:43:14;;;;;;;6.25;5.65;;;27.00;64.10;;;;;;5080355;28;20028;-68
2023/06/21 09:45:40;;;;;;;5.60;4.97;;;27.10;64.00;;;;;;5087781;28;20039;-68
2023/06/21 09:48:05;;;;;;;4.88;4.30;;;27.10;63.40;;;;;;5079746;28;20110;-68
2023/06/21 09:50:44;;;;;;;3.60;3.30;;;27.10;63.40;;;;;;5085096;28;20028;-68
2023/06/21 09:53:11;;;;;;;5.07;4.03;;;27.20;62.90;;;;;;5084161;28;20029;-68
2023/06/21 09:55:43;;;;;;;3.83;3.40;;;27.20;62.50;;;;;;5085603;28;20016;-69
2023/06/21 09:58:08;;;;;;;4.07;2.72;;;27.20;62.10;;;;;;5084756;28;20044;-68
2023/06/21 10:00:35;;;;;;;3.47;2.80;;;27.10;61.00;;;;;;5085499;28;20319;-68
2023/06/21 10:03:02;;;;;;;4.10;3.08;;;27.30;61.10;;;;;;5082933;28;20036;-68
2023/06/21 10:05:28;;;;;;;3.03;2.20;;;27.40;59.70;;;;;;5090105;28;20034;-68
2023/06/21 10:07:54;;;;;;;3.40;2.50;;;27.20;59.10;;;;;;5087298;28;20020;-68
2023/06/21 10:10:20;;;;;;;3.20;2.50;;;27.30;59.00;;;;;;5089975;28;20027;-68
2023/06/21 10:12:53;;;;;;;2.63;2.20;;;27.30;58.80;;;;;;5089211;28;20044;-68
2023/06/21 10:15:19;;;;;;;4.18;3.03;;;27.40;59.00;;;;;;5088364;28;20032;-68
2023/06/21 10:17:48;;;;;;;4.18;2.85;;;27.40;58.80;;;;;;5090184;28;20040;-69
2023/06/21 10:20:14;;;;;;;4.45;3.58;;;27.40;59.10;;;;;;5090278;28;20019;-68
2023/06/21 10:22:51;;;;;;;4.80;3.10;;;27.50;58.10;;;;;;5086125;28;20032;-68
2023/06/21 10:25:21;;;;;;;3.97;3.10;;;27.40;57.20;;;;;;5093194;28;20024;-68
2023/06/21 10:27:51;;;;;;;3.78;2.60;;;27.50;57.40;;;;;;5085113;28;20035;-68
2023/06/21 10:30:19;;;;;;;3.15;2.60;;;27.60;57.40;;;;;;5091912;28;20035;-68
2023/06/21 10:32:47;;;;;;;5.22;3.58;;;27.80;57.30;;;;;;5091106;28;20504;-68
2023/06/21 10:35:19;;;;;;;4.97;3.40;;;27.80;56.60;;;;;;5087823;28;20062;-68
2023/06/21 10:38:01;;;;;;;3.38;2.65;;;27.70;55.90;;;;;;5091283;28;20108;-68
2023/06/21 10:40:28;;;;;;;4.05;3.30;;;27.80;56.40;;;;;;5089735;28;20390;-68
2023/06/21 10:42:55;;;;;;;4.90;3.40;;;27.80;55.90;;;;;;5086727;28;20418;-68
2023/06/21 10:45:21;;;;;;;3.33;2.70;;;27.90;55.90;;;;;;5096188;28;20019;-69
2023/06/21 10:47:49;;;;;;;3.75;3.20;;;28.00;56.00;;;;;;5087884;28;20027;-68
2023/06/21 10:50:17;;;;;;;3.05;2.63;;;28.00;55.80;;;;;;5084759;28;20021;-68
2023/06/21 10:52:43;;;;;;;3.53;2.78;;;28.00;55.90;;;;;;5092350;28;20113;-68
2023/06/21 10:55:12;;;;;;;3.05;2.50;;;28.00;56.00;;;;;;5089274;28;20032;-68
2023/06/21 10:57:40;;;;;;;3.60;2.75;;;28.10;56.30;;;;;;5091088;28;20550;-68
2023/06/21 11:00:09;;;;;;;3.15;2.40;;;28.10;55.60;;;;;;5087846;28;20028;-68
2023/06/21 11:02:35;;;;;;;2.85;2.10;;;27.90;55.60;;;;;;5081154;28;20491;-68
2023/06/21 11:05:16;;;;;;;2.90;2.60;;;28.10;55.80;;;;;;5087956;28;20043;-68
2023/06/21 11:07:56;;;;;;;3.30;2.55;;;28.20;55.00;;;;;;5084313;28;20042;-68
2023/06/21 11:10:43;;;;;;;3.10;2.58;;;28.30;55.20;;;;;;5084039;28;20031;-68
2023/06/21 11:13:10;;;;;;;2.90;2.25;;;28.40;55.00;;;;;;5073223;28;20040;-69
2023/06/21 11:15:41;;;;;;;2.88;2.47;;;28.60;54.80;;;;;;5082656;28;20048;-68
2023/06/21 11:18:08;;;;;;;4.25;3.40;;;28.70;54.40;;;;;;5090032;28;20099;-69
2023/06/21 11:20:55;;;;;;;3.75;3.00;;;28.50;52.80;;;;;;5089188;28;20028;-68
2023/06/21 11:23:22;;;;;;;4.07;3.45;;;28.50;53.50;;;;;;5087122;28;20031;-69
2023/06/21 11:25:52;;;;;;;3.42;2.58;;;28.50;53.50;;;;;;5084787;28;20029;-69
2023/06/21 11:28:25;;;;;;;3.33;2.60;;;28.50;53.50;;;;;;5087130;28;20040;-68
2023/06/21 11:31:12;;;;;;;4.10;2.33;;;28.60;53.00;;;;;;5088410;28;20032;-68
2023/06/21 11:33:48;;;;;;;2.78;2.30;;;28.70;53.30;;;;;;5084176;28;20037;-68
2023/06/21 11:36:16;;;;;;;2.85;2.53;;;28.80;53.50;;;;;;5081162;28;20020;-68
2023/06/21 11:38:57;;;;;;;3.58;2.42;;;28.80;53.20;;;;;;5094971;28;20062;-68
2023/06/21 11:41:40;;;;;;;;;;;28.90;53.50;;;;;;5084632;28;20019;-69
2023/06/21 11:44:07;;;;;;;2.38;2.17;;;29.00;53.20;;;;;;5086635;28;19908;-69
2023/06/21 11:46:33;;;;;;;4.03;2.70;;;29.00;53.10;;;;;;5086428;28;20031;-68
2023/06/21 11:49:00;;;;;;;3.17;2.47;;;29.10;53.10;;;;;;5086095;28;20024;-68
2023/06/21 11:51:28;;;;;;;3.58;2.50;;;29.00;52.90;;;;;;5080965;28;20513;-69
2023/06/21 11:53:55;;;;;;;3.08;2.10;;;28.80;52.90;;;;;;5090122;28;20103;-69
2023/06/21 11:56:21;;;;;;;2.85;2.40;;;28.80;53.30;;;;;;5090276;28;20038;-69
2023/06/21 11:58:47;;;;;;;3.80;2.60;;;28.70;53.50;;;;;;5084300;28;20413;-69
2023/06/21 12:01:14;;;;;;;3.17;1.95;;;28.60;53.30;;;;;;5090501;28;20046;-69
2023/06/21 12:03:40;;;;;;;2.92;2.25;;;28.80;53.50;;;;;;5086317;28;20370;-69
2023/06/21 12:06:06;;;;;;;2.90;2.60;;;29.00;52.50;;;;;;5085057;28;20013;-69
2023/06/21 12:08:36;;;;;;;2.92;2.10;;;28.90;51.90;;;;;;5083346;28;20024;-69
2023/06/21 12:11:07;;;;;;;2.92;2.20;;;28.90;51.80;;;;;;5089307;28;20035;-69
2023/06/21 12:13:34;;;;;;;2.42;2.00;;;29.00;52.00;;;;;;5082661;28;20061;-69
2023/06/21 12:16:05;;;;;;;2.92;1.98;;;29.00;51.80;;;;;;5083506;28;20016;-69
2023/06/21 12:18:36;;;;;;;2.97;1.90;;;29.10;51.40;;;;;;5087731;28;20090;-69
2023/06/21 12:21:04;;;;;;;2.10;1.90;;;29.20;50.50;;;;;;5084533;28;20032;-69
2023/06/21 12:23:30;;;;;;;2.13;1.70;;;29.30;50.30;;;;;;5082971;28;20037;-69
2023/06/21 12:25:59;;;;;;;1.45;1.35;;;29.40;50.20;;;;;;5081869;28;20431;-69
2023/06/21 12:28:25;;;;;;;2.15;1.60;;;29.60;49.70;;;;;;5095241;28;20073;-69
2023/06/21 12:31:00;;;;;;;4.22;1.92;;;29.70;49.50;;;;;;5090115;28;20099;-69
2023/06/21 12:33:26;;;;;;;3.17;2.47;;;30.00;49.30;;;;;;5085009;28;20110;-69
2023/06/21 12:36:08;;;;;;;3.70;1.75;;;30.00;48.10;;;;;;5085275;28;20078;-69